sensor_id;sensor_type;location;lat;lon;timestamp;P1;durP1;ratioP1;P2;durP2;ratioP2
24147;SDS011;12309;51.450;-2.624;2023-09-19T00:00:57;20.75;;;2.92;;
24147;SDS011;12309;51.450;-2.624;2023-09-19T00:03:23;14.95;;;2.58;;
24147;SDS011;12309;51.450;-2.624;2023-09-19T00:05:50;21.88;;;2.47;;
24147;SDS011;12309;51.450;-2.624;2023-09-19T00:08:15;16.85;;;2.70;;
24147;SDS011;12309;51.450;-2.624;2023-09-19T00:10:41;15.40;;;3.08;;
24147;SDS011;12309;51.450;-2.624;2023-09-19T00:13:08;20.02;;;2.58;;
24147;SDS011;12309;51.450;-2.624;2023-09-19T00:15:38;13.23;;;1.98;;
24147;SDS011;12309;51.450;-2.624;2023-09-19T00:18:05;19.23;;;3.03;;
24147;SDS011;12309;51.450;-2.624;2023-09-19T00:20:32;13.27;;;2.47;;
24147;SDS011;12309;51.450;-2.624;2023-09-19T00:23:00;14.35;;;1.98;;
24147;SDS011;12309;51.450;-2.624;2023-09-19T00:25:27;17.17;;;2.47;;
24147;SDS011;12309;51.450;-2.624;2023-09-19T00:27:54;12.95;;;1.80;;
24147;SDS011;12309;51.450;-2.624;2023-09-19T00:30:20;18.42;;;2.38;;
24147;SDS011;12309;51.450;-2.624;2023-09-19T00:32:47;10.98;;;1.85;;
24147;SDS011;12309;51.450;-2.624;2023-09-19T00:35:16;12.23;;;2.28;;
24147;SDS011;12309;51.450;-2.624;2023-09-19T00:37:42;11.07;;;1.83;;
24147;SDS011;12309;51.450;-2.624;2023-09-19T00:40:08;12.70;;;2.30;;
24147;SDS011;12309;51.450;-2.624;2023-09-19T00:42:41;11.48;;;2.30;;
24147;SDS011;12309;51.450;-2.624;2023-09-19T00:45:07;12.17;;;2.53;;
24147;SDS011;12309;51.450;-2.624;2023-09-19T00:47:36;13.90;;;2.28;;
24147;SDS011;12309;51.450;-2.624;2023-09-19T00:50:15;10.53;;;2.07;;
24147;SDS011;12309;51.450;-2.624;2023-09-19T00:52:47;18.43;;;2.40;;
24147;SDS011;12309;51.450;-2.624;2023-09-19T00:55:15;10.87;;;2.23;;
24147;SDS011;12309;51.450;-2.624;2023-09-19T00:57:44;11.47;;;1.77;;
24147;SDS011;12309;51.450;-2.624;2023-09-19T01:00:11;13.47;;;2.17;;
24147;SDS011;12309;51.450;-2.624;2023-09-19T01:02:41;9.23;;;1.90;;
24147;SDS011;12309;51.450;-2.624;2023-09-19T01:05:08;11.30;;;1.80;;
24147;SDS011;12309;51.450;-2.624;2023-09-19T01:07:35;13.03;;;1.90;;
24147;SDS011;12309;51.450;-2.624;2023-09-19T01:10:04;11.97;;;2.23;;
24147;SDS011;12309;51.450;-2.624;2023-09-19T01:12:55;9.90;;;2.00;;
24147;SDS011;12309;51.450;-2.624;2023-09-19T01:18:11;14.77;;;2.03;;
24147;SDS011;12309;51.450;-2.624;2023-09-19T01:29:36;8.00;;;1.27;;
24147;SDS011;12309;51.450;-2.624;2023-09-19T01:32:09;11.47;;;2.00;;
24147;SDS011;12309;51.450;-2.624;2023-09-19T01:37:14;8.83;;;1.33;;
24147;SDS011;12309;51.450;-2.624;2023-09-19T01:39:43;8.87;;;1.40;;
24147;SDS011;12309;51.450;-2.624;2023-09-19T01:47:35;12.57;;;1.80;;
24147;SDS011;12309;51.450;-2.624;2023-09-19T01:52:57;8.87;;;1.50;;
24147;SDS011;12309;51.450;-2.624;2023-09-19T01:55:36;10.10;;;1.93;;
24147;SDS011;12309;51.450;-2.624;2023-09-19T01:59:06;10.40;;;1.57;;
24147;SDS011;12309;51.450;-2.624;2023-09-19T02:01:04;12.80;;;2.33;;
24147;SDS011;12309;51.450;-2.624;2023-09-19T02:03:33;11.23;;;1.60;;
24147;SDS011;12309;51.450;-2.624;2023-09-19T02:06:01;11.27;;;2.23;;
24147;SDS011;12309;51.450;-2.624;2023-09-19T02:08:28;8.63;;;2.13;;
24147;SDS011;12309;51.450;-2.624;2023-09-19T02:10:56;16.07;;;2.03;;
24147;SDS011;12309;51.450;-2.624;2023-09-19T02:13:22;10.33;;;1.73;;
24147;SDS011;12309;51.450;-2.624;2023-09-19T02:15:52;9.70;;;1.70;;
24147;SDS011;12309;51.450;-2.624;2023-09-19T02:18:18;12.07;;;1.83;;
24147;SDS011;12309;51.450;-2.624;2023-09-19T02:20:45;8.30;;;1.57;;
24147;SDS011;12309;51.450;-2.624;2023-09-19T02:23:11;10.23;;;2.00;;
24147;SDS011;12309;51.450;-2.624;2023-09-19T02:25:37;9.70;;;1.50;;
24147;SDS011;12309;51.450;-2.624;2023-09-19T02:28:05;14.20;;;2.27;;
24147;SDS011;12309;51.450;-2.624;2023-09-19T02:30:31;13.47;;;1.67;;
24147;SDS011;12309;51.450;-2.624;2023-09-19T02:32:57;7.03;;;1.50;;
24147;SDS011;12309;51.450;-2.624;2023-09-19T02:35:26;10.97;;;1.60;;
24147;SDS011;12309;51.450;-2.624;2023-09-19T02:37:53;15.47;;;1.80;;
24147;SDS011;12309;51.450;-2.624;2023-09-19T02:40:18;12.97;;;2.07;;
24147;SDS011;12309;51.450;-2.624;2023-09-19T02:42:48;9.33;;;1.77;;
24147;SDS011;12309;51.450;-2.624;2023-09-19T02:45:17;9.07;;;1.37;;
24147;SDS011;12309;51.450;-2.624;2023-09-19T02:47:43;7.85;;;1.40;;
24147;SDS011;12309;51.450;-2.624;2023-09-19T02:50:09;14.63;;;1.85;;
24147;SDS011;12309;51.450;-2.624;2023-09-19T02:52:41;9.55;;;1.85;;
24147;SDS011;12309;51.450;-2.624;2023-09-19T02:55:11;9.00;;;1.88;;
24147;SDS011;12309;51.450;-2.624;2023-09-19T02:57:39;13.27;;;2.10;;
24147;SDS011;12309;51.450;-2.624;2023-09-19T03:00:08;7.85;;;1.35;;
24147;SDS011;12309;51.450;-2.624;2023-09-19T03:02:35;9.47;;;1.57;;
24147;SDS011;12309;51.450;-2.624;2023-09-19T03:05:02;10.63;;;1.52;;
24147;SDS011;12309;51.450;-2.624;2023-09-19T03:07:29;11.27;;;1.30;;
24147;SDS011;12309;51.450;-2.624;2023-09-19T03:09:55;6.32;;;1.25;;
24147;SDS011;12309;51.450;-2.624;2023-09-19T03:12:21;14.40;;;1.98;;
24147;SDS011;12309;51.450;-2.624;2023-09-19T03:14:47;8.43;;;1.60;;
24147;SDS011;12309;51.450;-2.624;2023-09-19T03:17:13;11.85;;;1.67;;
24147;SDS011;12309;51.450;-2.624;2023-09-19T03:19:39;6.90;;;1.20;;
24147;SDS011;12309;51.450;-2.624;2023-09-19T03:22:05;10.38;;;1.98;;
24147;SDS011;12309;51.450;-2.624;2023-09-19T03:24:31;7.78;;;1.50;;
24147;SDS011;12309;51.450;-2.624;2023-09-19T03:26:58;13.20;;;1.48;;
24147;SDS011;12309;51.450;-2.624;2023-09-19T03:29:24;9.97;;;1.77;;
24147;SDS011;12309;51.450;-2.624;2023-09-19T03:31:50;9.80;;;1.63;;
24147;SDS011;12309;51.450;-2.624;2023-09-19T03:34:16;5.72;;;1.00;;
24147;SDS011;12309;51.450;-2.624;2023-09-19T03:36:42;11.82;;;1.23;;
24147;SDS011;12309;51.450;-2.624;2023-09-19T03:39:08;11.88;;;1.40;;
24147;SDS011;12309;51.450;-2.624;2023-09-19T03:41:33;9.13;;;1.25;;
24147;SDS011;12309;51.450;-2.624;2023-09-19T03:44:01;7.75;;;1.50;;
24147;SDS011;12309;51.450;-2.624;2023-09-19T03:46:27;12.13;;;1.65;;
24147;SDS011;12309;51.450;-2.624;2023-09-19T03:48:53;7.60;;;1.10;;
24147;SDS011;12309;51.450;-2.624;2023-09-19T03:51:19;6.35;;;1.27;;
24147;SDS011;12309;51.450;-2.624;2023-09-19T03:53:45;7.50;;;1.30;;
24147;SDS011;12309;51.450;-2.624;2023-09-19T03:56:11;7.30;;;1.40;;
24147;SDS011;12309;51.450;-2.624;2023-09-19T03:58:37;7.60;;;1.27;;
24147;SDS011;12309;51.450;-2.624;2023-09-19T04:01:04;8.07;;;1.65;;
24147;SDS011;12309;51.450;-2.624;2023-09-19T04:03:32;6.70;;;1.10;;
24147;SDS011;12309;51.450;-2.624;2023-09-19T04:06:14;10.38;;;1.42;;
24147;SDS011;12309;51.450;-2.624;2023-09-19T04:08:40;9.35;;;0.63;;
24147;SDS011;12309;51.450;-2.624;2023-09-19T04:11:06;5.50;;;0.85;;
24147;SDS011;12309;51.450;-2.624;2023-09-19T04:13:33;11.55;;;1.50;;
24147;SDS011;12309;51.450;-2.624;2023-09-19T04:15:58;7.00;;;1.35;;
24147;SDS011;12309;51.450;-2.624;2023-09-19T04:18:24;9.77;;;1.10;;
24147;SDS011;12309;51.450;-2.624;2023-09-19T04:20:51;9.80;;;1.30;;
24147;SDS011;12309;51.450;-2.624;2023-09-19T04:23:17;4.32;;;0.60;;
24147;SDS011;12309;51.450;-2.624;2023-09-19T04:25:44;9.07;;;1.02;;
24147;SDS011;12309;51.450;-2.624;2023-09-19T04:28:10;4.28;;;1.02;;
24147;SDS011;12309;51.450;-2.624;2023-09-19T04:30:37;3.67;;;1.02;;
24147;SDS011;12309;51.450;-2.624;2023-09-19T04:33:05;6.30;;;0.80;;
24147;SDS011;12309;51.450;-2.624;2023-09-19T04:35:31;6.07;;;1.13;;
24147;SDS011;12309;51.450;-2.624;2023-09-19T04:37:57;7.65;;;1.10;;
24147;SDS011;12309;51.450;-2.624;2023-09-19T04:40:23;7.20;;;1.15;;
24147;SDS011;12309;51.450;-2.624;2023-09-19T04:42:55;10.05;;;1.08;;
24147;SDS011;12309;51.450;-2.624;2023-09-19T04:45:27;7.65;;;1.38;;
24147;SDS011;12309;51.450;-2.624;2023-09-19T04:47:53;3.00;;;0.67;;
24147;SDS011;12309;51.450;-2.624;2023-09-19T04:50:19;7.60;;;0.88;;
24147;SDS011;12309;51.450;-2.624;2023-09-19T04:52:48;3.15;;;0.90;;
24147;SDS011;12309;51.450;-2.624;2023-09-19T04:55:16;3.13;;;0.77;;
24147;SDS011;12309;51.450;-2.624;2023-09-19T04:57:46;8.25;;;1.08;;
24147;SDS011;12309;51.450;-2.624;2023-09-19T05:00:17;6.38;;;1.00;;
24147;SDS011;12309;51.450;-2.624;2023-09-19T05:02:50;5.32;;;0.90;;
24147;SDS011;12309;51.450;-2.624;2023-09-19T05:05:16;5.68;;;0.77;;
24147;SDS011;12309;51.450;-2.624;2023-09-19T05:07:44;6.53;;;0.87;;
24147;SDS011;12309;51.450;-2.624;2023-09-19T05:10:10;6.53;;;0.60;;
24147;SDS011;12309;51.450;-2.624;2023-09-19T05:12:37;6.45;;;0.70;;
24147;SDS011;12309;51.450;-2.624;2023-09-19T05:15:03;7.20;;;1.07;;
24147;SDS011;12309;51.450;-2.624;2023-09-19T05:17:30;4.72;;;1.05;;
24147;SDS011;12309;51.450;-2.624;2023-09-19T05:19:56;4.60;;;0.70;;
24147;SDS011;12309;51.450;-2.624;2023-09-19T05:22:23;3.50;;;0.60;;
24147;SDS011;12309;51.450;-2.624;2023-09-19T05:24:51;2.78;;;0.60;;
24147;SDS011;12309;51.450;-2.624;2023-09-19T05:27:18;4.70;;;1.08;;
24147;SDS011;12309;51.450;-2.624;2023-09-19T05:29:45;3.45;;;0.93;;
24147;SDS011;12309;51.450;-2.624;2023-09-19T05:32:11;4.07;;;0.70;;
24147;SDS011;12309;51.450;-2.624;2023-09-19T05:34:38;3.97;;;0.60;;
24147;SDS011;12309;51.450;-2.624;2023-09-19T05:37:04;5.47;;;0.95;;
24147;SDS011;12309;51.450;-2.624;2023-09-19T05:39:32;2.65;;;0.50;;
24147;SDS011;12309;51.450;-2.624;2023-09-19T05:41:58;3.10;;;0.65;;
24147;SDS011;12309;51.450;-2.624;2023-09-19T05:44:25;3.50;;;0.90;;
24147;SDS011;12309;51.450;-2.624;2023-09-19T05:46:50;5.05;;;0.98;;
24147;SDS011;12309;51.450;-2.624;2023-09-19T05:49:17;7.30;;;1.25;;
24147;SDS011;12309;51.450;-2.624;2023-09-19T05:51:42;3.83;;;0.88;;
24147;SDS011;12309;51.450;-2.624;2023-09-19T05:54:08;4.13;;;0.88;;
24147;SDS011;12309;51.450;-2.624;2023-09-19T05:56:36;4.10;;;1.23;;
24147;SDS011;12309;51.450;-2.624;2023-09-19T05:59:01;8.52;;;1.30;;
24147;SDS011;12309;51.450;-2.624;2023-09-19T06:01:28;7.00;;;1.00;;
24147;SDS011;12309;51.450;-2.624;2023-09-19T06:03:56;6.95;;;1.42;;
24147;SDS011;12309;51.450;-2.624;2023-09-19T06:06:21;8.02;;;1.40;;
24147;SDS011;12309;51.450;-2.624;2023-09-19T06:08:49;9.38;;;1.63;;
24147;SDS011;12309;51.450;-2.624;2023-09-19T06:11:15;6.13;;;1.08;;
24147;SDS011;12309;51.450;-2.624;2023-09-19T06:13:41;4.90;;;1.27;;
24147;SDS011;12309;51.450;-2.624;2023-09-19T06:16:06;7.65;;;1.55;;
24147;SDS011;12309;51.450;-2.624;2023-09-19T06:18:34;6.38;;;1.58;;
24147;SDS011;12309;51.450;-2.624;2023-09-19T06:21:01;7.13;;;1.88;;
24147;SDS011;12309;51.450;-2.624;2023-09-19T06:23:30;9.80;;;2.03;;
24147;SDS011;12309;51.450;-2.624;2023-09-19T06:25:56;8.63;;;1.77;;
24147;SDS011;12309;51.450;-2.624;2023-09-19T06:28:22;8.20;;;1.80;;
24147;SDS011;12309;51.450;-2.624;2023-09-19T06:30:49;7.38;;;1.17;;
24147;SDS011;12309;51.450;-2.624;2023-09-19T06:33:15;12.77;;;1.83;;
24147;SDS011;12309;51.450;-2.624;2023-09-19T06:35:40;5.97;;;1.45;;
24147;SDS011;12309;51.450;-2.624;2023-09-19T06:38:07;8.13;;;1.48;;
24147;SDS011;12309;51.450;-2.624;2023-09-19T06:40:33;8.55;;;1.80;;
24147;SDS011;12309;51.450;-2.624;2023-09-19T06:42:59;6.95;;;1.70;;
24147;SDS011;12309;51.450;-2.624;2023-09-19T06:45:27;7.18;;;1.15;;
24147;SDS011;12309;51.450;-2.624;2023-09-19T06:47:53;7.35;;;1.70;;
24147;SDS011;12309;51.450;-2.624;2023-09-19T06:50:22;8.20;;;1.80;;
24147;SDS011;12309;51.450;-2.624;2023-09-19T06:52:49;9.65;;;2.00;;
24147;SDS011;12309;51.450;-2.624;2023-09-19T06:55:17;7.70;;;1.85;;
24147;SDS011;12309;51.450;-2.624;2023-09-19T06:57:45;2.97;;;0.85;;
24147;SDS011;12309;51.450;-2.624;2023-09-19T07:00:11;9.77;;;1.98;;
24147;SDS011;12309;51.450;-2.624;2023-09-19T07:02:44;11.40;;;1.90;;
24147;SDS011;12309;51.450;-2.624;2023-09-19T07:05:10;10.93;;;1.92;;
24147;SDS011;12309;51.450;-2.624;2023-09-19T07:07:35;7.70;;;2.53;;
24147;SDS011;12309;51.450;-2.624;2023-09-19T07:10:02;14.40;;;2.63;;
24147;SDS011;12309;51.450;-2.624;2023-09-19T07:12:30;9.57;;;2.30;;
24147;SDS011;12309;51.450;-2.624;2023-09-19T07:14:57;12.27;;;2.10;;
24147;SDS011;12309;51.450;-2.624;2023-09-19T07:17:23;11.43;;;2.05;;
24147;SDS011;12309;51.450;-2.624;2023-09-19T07:19:49;12.38;;;2.60;;
24147;SDS011;12309;51.450;-2.624;2023-09-19T07:22:15;10.93;;;2.45;;
24147;SDS011;12309;51.450;-2.624;2023-09-19T07:24:41;5.00;;;2.00;;
24147;SDS011;12309;51.450;-2.624;2023-09-19T07:27:07;8.52;;;2.38;;
24147;SDS011;12309;51.450;-2.624;2023-09-19T07:29:33;13.63;;;2.80;;
24147;SDS011;12309;51.450;-2.624;2023-09-19T07:31:59;11.23;;;2.50;;
24147;SDS011;12309;51.450;-2.624;2023-09-19T07:34:25;13.63;;;2.70;;
24147;SDS011;12309;51.450;-2.624;2023-09-19T07:36:51;11.90;;;2.55;;
24147;SDS011;12309;51.450;-2.624;2023-09-19T07:39:16;20.30;;;3.65;;
24147;SDS011;12309;51.450;-2.624;2023-09-19T07:41:42;11.13;;;2.72;;
24147;SDS011;12309;51.450;-2.624;2023-09-19T07:44:08;12.93;;;2.80;;
24147;SDS011;12309;51.450;-2.624;2023-09-19T07:46:36;17.77;;;3.00;;
24147;SDS011;12309;51.450;-2.624;2023-09-19T07:49:02;16.10;;;3.35;;
24147;SDS011;12309;51.450;-2.624;2023-09-19T07:51:28;4.57;;;1.42;;
24147;SDS011;12309;51.450;-2.624;2023-09-19T07:53:54;16.00;;;3.45;;
24147;SDS011;12309;51.450;-2.624;2023-09-19T07:56:20;13.80;;;3.15;;
24147;SDS011;12309;51.450;-2.624;2023-09-19T07:58:45;17.88;;;3.55;;
24147;SDS011;12309;51.450;-2.624;2023-09-19T08:01:11;10.93;;;2.60;;
24147;SDS011;12309;51.450;-2.624;2023-09-19T08:03:38;16.67;;;2.97;;
24147;SDS011;12309;51.450;-2.624;2023-09-19T08:06:06;15.23;;;2.50;;
24147;SDS011;12309;51.450;-2.624;2023-09-19T08:08:32;18.98;;;3.10;;
24147;SDS011;12309;51.450;-2.624;2023-09-19T08:11:05;12.70;;;3.38;;
24147;SDS011;12309;51.450;-2.624;2023-09-19T08:13:40;22.50;;;4.03;;
24147;SDS011;12309;51.450;-2.624;2023-09-19T08:16:11;9.10;;;2.00;;
24147;SDS011;12309;51.450;-2.624;2023-09-19T08:18:38;13.32;;;3.08;;
24147;SDS011;12309;51.450;-2.624;2023-09-19T08:21:05;15.10;;;3.13;;
24147;SDS011;12309;51.450;-2.624;2023-09-19T08:23:35;11.82;;;2.88;;
24147;SDS011;12309;51.450;-2.624;2023-09-19T08:26:01;23.50;;;3.88;;
24147;SDS011;12309;51.450;-2.624;2023-09-19T08:28:32;22.52;;;3.92;;
24147;SDS011;12309;51.450;-2.624;2023-09-19T08:31:01;14.52;;;3.10;;
24147;SDS011;12309;51.450;-2.624;2023-09-19T08:33:34;13.63;;;3.25;;
24147;SDS011;12309;51.450;-2.624;2023-09-19T08:36:01;14.68;;;3.40;;
24147;SDS011;12309;51.450;-2.624;2023-09-19T08:38:29;13.30;;;2.63;;
24147;SDS011;12309;51.450;-2.624;2023-09-19T08:40:59;18.48;;;3.40;;
24147;SDS011;12309;51.450;-2.624;2023-09-19T08:43:26;15.93;;;3.50;;
24147;SDS011;12309;51.450;-2.624;2023-09-19T08:46:25;11.82;;;3.38;;
24147;SDS011;12309;51.450;-2.624;2023-09-19T08:48:54;9.23;;;2.55;;
24147;SDS011;12309;51.450;-2.624;2023-09-19T08:51:30;18.77;;;2.90;;
24147;SDS011;12309;51.450;-2.624;2023-09-19T08:56:34;13.60;;;2.70;;
24147;SDS011;12309;51.450;-2.624;2023-09-19T08:59:04;8.25;;;2.15;;
24147;SDS011;12309;51.450;-2.624;2023-09-19T09:01:34;10.73;;;2.13;;
24147;SDS011;12309;51.450;-2.624;2023-09-19T09:04:01;6.47;;;1.52;;
24147;SDS011;12309;51.450;-2.624;2023-09-19T09:06:27;8.82;;;2.45;;
24147;SDS011;12309;51.450;-2.624;2023-09-19T09:08:54;8.55;;;1.90;;
24147;SDS011;12309;51.450;-2.624;2023-09-19T09:11:20;8.27;;;2.10;;
24147;SDS011;12309;51.450;-2.624;2023-09-19T09:13:48;7.75;;;1.63;;
24147;SDS011;12309;51.450;-2.624;2023-09-19T09:16:14;12.20;;;2.58;;
24147;SDS011;12309;51.450;-2.624;2023-09-19T09:18:43;11.27;;;2.60;;
24147;SDS011;12309;51.450;-2.624;2023-09-19T09:21:17;13.70;;;2.42;;
24147;SDS011;12309;51.450;-2.624;2023-09-19T09:23:43;8.50;;;2.55;;
24147;SDS011;12309;51.450;-2.624;2023-09-19T09:26:09;8.82;;;1.92;;
24147;SDS011;12309;51.450;-2.624;2023-09-19T09:28:35;9.15;;;2.38;;
24147;SDS011;12309;51.450;-2.624;2023-09-19T09:31:12;4.10;;;1.27;;
24147;SDS011;12309;51.450;-2.624;2023-09-19T09:33:54;7.50;;;2.00;;
24147;SDS011;12309;51.450;-2.624;2023-09-19T09:36:37;7.43;;;1.85;;
24147;SDS011;12309;51.450;-2.624;2023-09-19T09:39:06;5.68;;;1.70;;
24147;SDS011;12309;51.450;-2.624;2023-09-19T09:41:43;6.35;;;1.92;;
24147;SDS011;12309;51.450;-2.624;2023-09-19T09:44:12;7.68;;;1.90;;
24147;SDS011;12309;51.450;-2.624;2023-09-19T09:46:42;6.65;;;1.67;;
24147;SDS011;12309;51.450;-2.624;2023-09-19T09:49:15;5.78;;;1.88;;
24147;SDS011;12309;51.450;-2.624;2023-09-19T09:52:15;4.45;;;1.75;;
24147;SDS011;12309;51.450;-2.624;2023-09-19T09:54:59;4.93;;;1.50;;
24147;SDS011;12309;51.450;-2.624;2023-09-19T09:57:32;4.85;;;1.70;;
24147;SDS011;12309;51.450;-2.624;2023-09-19T09:59:59;8.05;;;1.20;;
24147;SDS011;12309;51.450;-2.624;2023-09-19T10:02:41;5.68;;;1.70;;
24147;SDS011;12309;51.450;-2.624;2023-09-19T10:05:15;4.70;;;1.17;;
24147;SDS011;12309;51.450;-2.624;2023-09-19T10:07:54;4.72;;;1.13;;
24147;SDS011;12309;51.450;-2.624;2023-09-19T10:10:32;4.88;;;1.20;;
24147;SDS011;12309;51.450;-2.624;2023-09-19T10:13:07;6.03;;;1.38;;
24147;SDS011;12309;51.450;-2.624;2023-09-19T10:15:38;4.57;;;1.05;;
24147;SDS011;12309;51.450;-2.624;2023-09-19T10:18:07;3.15;;;1.15;;
24147;SDS011;12309;51.450;-2.624;2023-09-19T10:20:36;4.22;;;1.13;;
24147;SDS011;12309;51.450;-2.624;2023-09-19T10:23:07;6.75;;;1.08;;
24147;SDS011;12309;51.450;-2.624;2023-09-19T10:25:36;3.55;;;1.02;;
24147;SDS011;12309;51.450;-2.624;2023-09-19T10:28:05;3.53;;;0.65;;
24147;SDS011;12309;51.450;-2.624;2023-09-19T10:30:36;3.45;;;1.10;;
24147;SDS011;12309;51.450;-2.624;2023-09-19T10:33:14;5.03;;;1.13;;
24147;SDS011;12309;51.450;-2.624;2023-09-19T10:35:44;5.97;;;1.13;;
24147;SDS011;12309;51.450;-2.624;2023-09-19T10:38:11;1.58;;;0.60;;
24147;SDS011;12309;51.450;-2.624;2023-09-19T10:40:38;1.42;;;0.60;;
24147;SDS011;12309;51.450;-2.624;2023-09-19T10:43:17;2.97;;;0.70;;
24147;SDS011;12309;51.450;-2.624;2023-09-19T10:45:45;1.05;;;0.50;;
24147;SDS011;12309;51.450;-2.624;2023-09-19T10:48:14;1.05;;;0.28;;
24147;SDS011;12309;51.450;-2.624;2023-09-19T10:50:51;2.05;;;0.50;;
24147;SDS011;12309;51.450;-2.624;2023-09-19T10:53:32;1.25;;;0.40;;
24147;SDS011;12309;51.450;-2.624;2023-09-19T10:56:14;2.50;;;0.50;;
24147;SDS011;12309;51.450;-2.624;2023-09-19T10:59:18;1.85;;;0.50;;
24147;SDS011;12309;51.450;-2.624;2023-09-19T11:01:50;0.93;;;0.45;;
24147;SDS011;12309;51.450;-2.624;2023-09-19T11:04:27;2.00;;;0.40;;
24147;SDS011;12309;51.450;-2.624;2023-09-19T11:09:46;0.52;;;0.30;;
24147;SDS011;12309;51.450;-2.624;2023-09-19T11:14:57;1.25;;;0.38;;
24147;SDS011;12309;51.450;-2.624;2023-09-19T11:17:33;0.70;;;0.40;;
24147;SDS011;12309;51.450;-2.624;2023-09-19T11:36:04;0.70;;;0.25;;
24147;SDS011;12309;51.450;-2.624;2023-09-19T11:49:17;1.58;;;0.40;;
24147;SDS011;12309;51.450;-2.624;2023-09-19T11:51:46;1.55;;;0.43;;
24147;SDS011;12309;51.450;-2.624;2023-09-19T11:54:17;5.68;;;0.35;;
24147;SDS011;12309;51.450;-2.624;2023-09-19T11:56:44;1.10;;;0.40;;
24147;SDS011;12309;51.450;-2.624;2023-09-19T11:59:11;2.95;;;0.45;;
24147;SDS011;12309;51.450;-2.624;2023-09-19T12:01:50;1.95;;;0.40;;
24147;SDS011;12309;51.450;-2.624;2023-09-19T12:04:22;3.17;;;0.60;;
24147;SDS011;12309;51.450;-2.624;2023-09-19T12:07:02;2.90;;;0.77;;
24147;SDS011;12309;51.450;-2.624;2023-09-19T12:09:30;3.80;;;0.52;;
24147;SDS011;12309;51.450;-2.624;2023-09-19T12:11:56;2.63;;;0.40;;
24147;SDS011;12309;51.450;-2.624;2023-09-19T12:14:25;4.35;;;0.80;;
24147;SDS011;12309;51.450;-2.624;2023-09-19T12:16:53;4.75;;;0.77;;
24147;SDS011;12309;51.450;-2.624;2023-09-19T12:19:20;5.28;;;0.95;;
24147;SDS011;12309;51.450;-2.624;2023-09-19T12:21:59;3.58;;;0.77;;
24147;SDS011;12309;51.450;-2.624;2023-09-19T12:24:34;1.70;;;0.60;;
24147;SDS011;12309;51.450;-2.624;2023-09-19T12:27:04;4.70;;;0.60;;
24147;SDS011;12309;51.450;-2.624;2023-09-19T12:29:31;1.67;;;0.70;;
24147;SDS011;12309;51.450;-2.624;2023-09-19T12:32:06;1.80;;;0.43;;
24147;SDS011;12309;51.450;-2.624;2023-09-19T12:34:32;1.33;;;0.60;;
24147;SDS011;12309;51.450;-2.624;2023-09-19T12:37:07;3.05;;;0.73;;
24147;SDS011;12309;51.450;-2.624;2023-09-19T12:39:44;3.88;;;0.77;;
24147;SDS011;12309;51.450;-2.624;2023-09-19T12:42:22;2.50;;;0.77;;
24147;SDS011;12309;51.450;-2.624;2023-09-19T12:44:52;3.25;;;0.70;;
24147;SDS011;12309;51.450;-2.624;2023-09-19T12:47:21;2.28;;;0.80;;
24147;SDS011;12309;51.450;-2.624;2023-09-19T12:50:09;2.65;;;0.82;;
24147;SDS011;12309;51.450;-2.624;2023-09-19T12:52:44;2.05;;;0.50;;
24147;SDS011;12309;51.450;-2.624;2023-09-19T12:55:34;2.67;;;0.52;;
24147;SDS011;12309;51.450;-2.624;2023-09-19T13:00:38;1.25;;;0.55;;
24147;SDS011;12309;51.450;-2.624;2023-09-19T13:03:18;3.65;;;0.50;;
24147;SDS011;12309;51.450;-2.624;2023-09-19T13:05:57;1.90;;;0.68;;
24147;SDS011;12309;51.450;-2.624;2023-09-19T13:13:47;6.85;;;1.20;;
24147;SDS011;12309;51.450;-2.624;2023-09-19T13:16:18;6.32;;;1.27;;
24147;SDS011;12309;51.450;-2.624;2023-09-19T13:21:16;7.03;;;1.95;;
24147;SDS011;12309;51.450;-2.624;2023-09-19T13:23:52;10.52;;;2.30;;
24147;SDS011;12309;51.450;-2.624;2023-09-19T13:26:24;11.38;;;2.30;;
24147;SDS011;12309;51.450;-2.624;2023-09-19T13:28:53;11.55;;;2.10;;
24147;SDS011;12309;51.450;-2.624;2023-09-19T13:31:20;8.23;;;2.00;;
24147;SDS011;12309;51.450;-2.624;2023-09-19T13:33:47;11.63;;;2.75;;
24147;SDS011;12309;51.450;-2.624;2023-09-19T13:36:13;7.13;;;1.60;;
24147;SDS011;12309;51.450;-2.624;2023-09-19T13:38:39;8.55;;;1.85;;
24147;SDS011;12309;51.450;-2.624;2023-09-19T13:41:07;9.25;;;2.60;;
24147;SDS011;12309;51.450;-2.624;2023-09-19T13:43:35;10.50;;;2.10;;
24147;SDS011;12309;51.450;-2.624;2023-09-19T13:46:01;16.05;;;2.53;;
24147;SDS011;12309;51.450;-2.624;2023-09-19T13:48:27;11.15;;;2.13;;
24147;SDS011;12309;51.450;-2.624;2023-09-19T13:50:54;9.55;;;2.00;;
24147;SDS011;12309;51.450;-2.624;2023-09-19T13:53:21;8.98;;;1.70;;
24147;SDS011;12309;51.450;-2.624;2023-09-19T13:55:46;9.50;;;1.90;;
24147;SDS011;12309;51.450;-2.624;2023-09-19T13:58:13;7.00;;;1.80;;
24147;SDS011;12309;51.450;-2.624;2023-09-19T14:00:39;7.68;;;1.50;;
24147;SDS011;12309;51.450;-2.624;2023-09-19T14:03:05;8.23;;;2.00;;
24147;SDS011;12309;51.450;-2.624;2023-09-19T14:05:31;11.70;;;2.10;;
24147;SDS011;12309;51.450;-2.624;2023-09-19T14:07:57;10.00;;;2.05;;
24147;SDS011;12309;51.450;-2.624;2023-09-19T14:10:24;6.55;;;1.98;;
24147;SDS011;12309;51.450;-2.624;2023-09-19T14:12:52;13.25;;;2.25;;
24147;SDS011;12309;51.450;-2.624;2023-09-19T14:15:18;10.32;;;1.80;;
24147;SDS011;12309;51.450;-2.624;2023-09-19T14:17:44;10.07;;;1.90;;
24147;SDS011;12309;51.450;-2.624;2023-09-19T14:20:10;9.88;;;2.05;;
24147;SDS011;12309;51.450;-2.624;2023-09-19T14:22:39;12.48;;;1.92;;
24147;SDS011;12309;51.450;-2.624;2023-09-19T14:25:05;6.50;;;1.80;;
24147;SDS011;12309;51.450;-2.624;2023-09-19T14:27:31;2.67;;;0.88;;
24147;SDS011;12309;51.450;-2.624;2023-09-19T14:29:56;6.35;;;1.63;;
24147;SDS011;12309;51.450;-2.624;2023-09-19T14:32:22;7.80;;;1.33;;
24147;SDS011;12309;51.450;-2.624;2023-09-19T14:34:48;5.60;;;1.30;;
24147;SDS011;12309;51.450;-2.624;2023-09-19T14:37:14;9.90;;;1.45;;
24147;SDS011;12309;51.450;-2.624;2023-09-19T14:39:41;6.68;;;1.00;;
24147;SDS011;12309;51.450;-2.624;2023-09-19T14:42:09;3.35;;;0.90;;
24147;SDS011;12309;51.450;-2.624;2023-09-19T14:44:35;4.93;;;1.10;;
24147;SDS011;12309;51.450;-2.624;2023-09-19T14:47:05;3.90;;;0.80;;
24147;SDS011;12309;51.450;-2.624;2023-09-19T14:49:35;3.58;;;0.70;;
24147;SDS011;12309;51.450;-2.624;2023-09-19T14:52:04;3.15;;;0.75;;
24147;SDS011;12309;51.450;-2.624;2023-09-19T14:54:32;3.20;;;0.60;;
24147;SDS011;12309;51.450;-2.624;2023-09-19T14:56:59;5.35;;;0.75;;
24147;SDS011;12309;51.450;-2.624;2023-09-19T14:59:33;3.97;;;0.85;;
24147;SDS011;12309;51.450;-2.624;2023-09-19T15:02:03;3.55;;;0.70;;
24147;SDS011;12309;51.450;-2.624;2023-09-19T15:04:29;5.00;;;0.70;;
24147;SDS011;12309;51.450;-2.624;2023-09-19T15:06:55;2.08;;;0.50;;
24147;SDS011;12309;51.450;-2.624;2023-09-19T15:09:21;4.90;;;0.90;;
24147;SDS011;12309;51.450;-2.624;2023-09-19T15:11:54;4.22;;;0.82;;
24147;SDS011;12309;51.450;-2.624;2023-09-19T15:14:23;3.75;;;0.77;;
24147;SDS011;12309;51.450;-2.624;2023-09-19T15:16:50;6.13;;;0.80;;
24147;SDS011;12309;51.450;-2.624;2023-09-19T15:19:15;1.80;;;0.60;;
24147;SDS011;12309;51.450;-2.624;2023-09-19T15:21:42;4.50;;;1.10;;
24147;SDS011;12309;51.450;-2.624;2023-09-19T15:24:08;7.72;;;1.00;;
24147;SDS011;12309;51.450;-2.624;2023-09-19T15:26:35;8.70;;;0.80;;
24147;SDS011;12309;51.450;-2.624;2023-09-19T15:29:04;4.50;;;0.88;;
24147;SDS011;12309;51.450;-2.624;2023-09-19T15:31:31;5.20;;;1.10;;
24147;SDS011;12309;51.450;-2.624;2023-09-19T15:33:57;8.18;;;1.60;;
24147;SDS011;12309;51.450;-2.624;2023-09-19T15:36:22;12.80;;;1.73;;
24147;SDS011;12309;51.450;-2.624;2023-09-19T15:39:01;11.60;;;2.33;;
24147;SDS011;12309;51.450;-2.624;2023-09-19T15:41:29;5.55;;;1.38;;
24147;SDS011;12309;51.450;-2.624;2023-09-19T15:43:57;10.70;;;1.77;;
24147;SDS011;12309;51.450;-2.624;2023-09-19T15:46:30;8.48;;;1.73;;
24147;SDS011;12309;51.450;-2.624;2023-09-19T15:48:58;9.65;;;1.98;;